Time;durP1;ratioP1;P1;durP2;ratioP2;P2;SDS_P1;SDS_P2;PMS_P1;PMS_P2;Temp;Humidity;BMP_temperature;BMP_pressure;BME280_temperature;BME280_humidity;BME280_pressure;Samples;Min_cycle;Max_cycle;Signal;HPM_P1;HPM_P2
2021/04/06 00:02:21;;;;;;;;;;;;;;;;;;5018205;28;20018;-65
2021/04/06 00:04:47;;;;;;;21.45;11.20;;;;;;;;;;5034471;28;19932;-66
2021/04/06 00:07:14;;;;;;;20.10;11.02;;;;;;;;;;5035127;28;20025;-66
2021/04/06 00:09:40;;;;;;;23.80;11.77;;;;;;;;;;5017509;28;20526;-66
2021/04/06 00:12:07;;;;;;;25.33;12.15;;;;;;;;;;5034997;28;20051;-66
2021/04/06 00:14:33;;;;;;;20.88;11.55;;;;;;;;;;5035095;28;20020;-66
2021/04/06 00:17:01;;;;;;;24.23;11.98;;;;;;;;;;5000815;28;20025;-65
2021/04/06 00:19:28;;;;;;;20.30;10.82;;;;;;;;;;5035062;28;20355;-66
2021/04/06 00:21:55;;;;;;;23.75;12.75;;;;;;;;;;5017332;28;20021;-66
2021/04/06 00:24:23;;;;;;;22.85;11.77;;;;;;;;;;5017444;28;20017;-66
2021/04/06 00:42:20;;;;;;;24.08;12.38;;;;;;;;;;4356443;26;20541;-66
2021/04/06 00:44:47;;;;;;;20.95;12.32;;;;;;;;;;5034571;28;20029;-66
2021/04/06 00:47:14;;;;;;;22.48;12.27;;;;;;;;;;5034659;28;20017;-66
2021/04/06 00:49:41;;;;;;;22.30;11.93;;;;;;;;;;5034749;28;20107;-66
2021/04/06 00:52:07;;;;;;;22.95;11.82;;;;;;;;;;5016756;28;20048;-66
2021/04/06 00:54:33;;;;;;;24.58;12.77;;;;;;;;;;5034455;28;20018;-67
2021/04/06 00:56:59;;;;;;;25.67;12.63;;;;;;;;;;5034192;28;20071;-66
2021/04/06 00:59:25;;;;;;;25.10;12.60;;;;;;;;;;5034577;28;20120;-66
2021/04/06 01:01:54;;;;;;;20.52;11.68;;;;;;;;;;5034533;28;20497;-66
2021/04/06 01:04:22;;;;;;;28.17;13.60;;;;;;;;;;5034341;28;20025;-66
2021/04/06 01:06:57;;;;;;;23.83;12.18;;;;;;;;;;5033566;28;20067;-65
2021/04/06 01:09:32;;;;;;;19.27;11.68;;;;;;;;;;5034348;28;20421;-66
2021/04/06 01:11:58;;;;;;;24.13;11.18;;;;;;;;;;5034100;28;20057;-66
2021/04/06 01:14:23;;;;;;;25.48;11.25;;;;;;;;;;5034251;28;20087;-66
2021/04/06 01:16:48;;;;;;;25.67;11.63;;;;;;;;;;5033895;28;20017;-66
2021/04/06 01:19:14;;;;;;;22.35;11.32;;;;;;;;;;5033955;28;20018;-66
2021/04/06 01:21:39;;;;;;;26.10;12.07;;;;;;;;;;5034139;28;20040;-66
2021/04/06 01:24:06;;;;;;;25.08;11.93;;;;;;;;;;5016335;28;20024;-66
2021/04/06 01:26:32;;;;;;;21.52;13.05;;;;;;;;;;5018249;28;20018;-66
2021/04/06 01:58:34;;;;;;;21.38;11.68;;;;;;;;;;4997352;28;20088;-66
2021/04/06 02:03:29;;;;;;;26.02;12.18;;;;;;;;;;4996006;28;20037;-66
2021/04/06 02:05:55;;;;;;;28.38;13.32;;;;;;;;;;4995524;28;20473;-66
2021/04/06 02:08:21;;;;;;;24.77;12.13;;;;;;;;;;5013669;28;20024;-66
2021/04/06 02:10:48;;;;;;;22.33;12.73;;;;;;;;;;5013068;28;20113;-66
2021/04/06 02:13:15;;;;;;;21.52;11.70;;;;;;;;;;5013179;28;20040;-66
2021/04/06 02:15:41;;;;;;;24.67;12.23;;;;;;;;;;4995757;28;20018;-66
2021/04/06 02:18:07;;;;;;;22.90;12.43;;;;;;;;;;5013215;28;20017;-66
2021/04/06 02:20:32;;;;;;;23.50;12.32;;;;;;;;;;4995237;28;20022;-66
2021/04/06 02:22:59;;;;;;;24.35;13.07;;;;;;;;;;5013098;28;20018;-66
2021/04/06 02:25:25;;;;;;;22.55;12.32;;;;;;;;;;5013176;28;20018;-66
2021/04/06 02:40:46;;;;;;;20.02;11.40;;;;;;;;;;5892300;23;20071;-66
2021/04/06 02:43:11;;;;;;;22.63;11.70;;;;;;;;;;5031514;28;20017;-66
2021/04/06 02:45:37;;;;;;;19.25;11.75;;;;;;;;;;5032546;28;20083;-66
2021/04/06 02:48:10;;;;;;;21.92;10.52;;;;;;;;;;5014447;28;20025;-66
2021/04/06 02:50:36;;;;;;;19.35;9.50;;;;;;;;;;5015808;28;20021;-66
2021/04/06 02:53:04;;;;;;;17.33;8.43;;;;;;;;;;5014816;28;20501;-66
2021/04/06 02:55:30;;;;;;;10.93;6.50;;;;;;;;;;5014929;28;20029;-66
2021/04/06 02:57:55;;;;;;;20.13;4.07;;;;;;;;;;5014779;28;20413;-66
2021/04/06 03:00:36;;;;;;;10.85;3.92;;;;;;;;;;5014675;28;20385;-66
2021/04/06 03:03:03;;;;;;;14.48;3.10;;;;;;;;;;5034644;28;20462;-66
2021/04/06 03:05:31;;;;;;;10.93;2.03;;;;;;;;;;5036270;28;20145;-66
2021/04/06 03:07:57;;;;;;;15.23;3.03;;;;;;;;;;5036544;28;20017;-66
2021/04/06 03:10:22;;;;;;;10.23;1.98;;;;;;;;;;5036358;28;20017;-66
2021/04/06 03:12:48;;;;;;;7.60;1.30;;;;;;;;;;5001740;28;20032;-66
2021/04/06 03:15:19;;;;;;;20.48;3.78;;;;;;;;;;5018666;28;20033;-66
2021/04/06 03:17:45;;;;;;;7.80;1.75;;;;;;;;;;5018643;28;20017;-66
2021/04/06 03:20:12;;;;;;;8.63;1.35;;;;;;;;;;5018516;28;20033;-66
2021/04/06 03:22:37;;;;;;;11.85;1.30;;;;;;;;;;5018539;28;20060;-66
2021/04/06 03:25:03;;;;;;;2.65;0.60;;;;;;;;;;5036012;28;20412;-66
2021/04/06 03:30:04;;;;;;;11.05;1.00;;;;;;;;;;5049951;23;20053;-66
2021/04/06 03:32:30;;;;;;;3.58;0.80;;;;;;;;;;5035959;28;20084;-66
2021/04/06 03:34:55;;;;;;;5.68;0.82;;;;;;;;;;5038826;28;20497;-66
2021/04/06 03:37:21;;;;;;;6.35;0.60;;;;;;;;;;5018298;28;20021;-65
2021/04/06 03:39:47;;;;;;;1.48;0.50;;;;;;;;;;5036024;28;20386;-66
2021/04/06 03:42:20;;;;;;;1.05;0.60;;;;;;;;;;5001486;28;20017;-66
2021/04/06 03:44:46;;;;;;;1.92;0.73;;;;;;;;;;5035621;28;20018;-65
2021/04/06 03:47:11;;;;;;;1.15;0.82;;;;;;;;;;5035729;28;20024;-66
2021/04/06 03:49:45;;;;;;;0.90;0.70;;;;;;;;;;5018133;28;20536;-66
2021/04/06 03:52:11;;;;;;;3.05;1.15;;;;;;;;;;5017810;28;20040;-66
2021/04/06 03:54:40;;;;;;;1.30;0.75;;;;;;;;;;5017658;28;20025;-66
2021/04/06 03:57:20;;;;;;;1.63;0.80;;;;;;;;;;5017974;28;20021;-66
2021/04/06 03:59:45;;;;;;;0.60;0.60;;;;;;;;;;5035540;28;20025;-65
2021/04/06 04:02:11;;;;;;;2.53;0.80;;;;;;;;;;5035463;28;20429;-66
2021/04/06 04:04:38;;;;;;;1.10;1.00;;;;;;;;;;5017001;28;20021;-66
2021/04/06 04:07:03;;;;;;;1.02;0.82;;;;;;;;;;5035194;28;20025;-66
2021/04/06 04:09:29;;;;;;;1.60;1.20;;;;;;;;;;5017644;28;20018;-66
2021/04/06 04:11:54;;;;;;;5.65;2.25;;;;;;;;;;5035326;28;20040;-66
2021/04/06 04:14:19;;;;;;;2.40;1.40;;;;;;;;;;5034633;28;20021;-66
2021/04/06 04:16:45;;;;;;;2.70;1.80;;;;;;;;;;5017400;28;20029;-66
2021/04/06 04:19:10;;;;;;;4.60;1.75;;;;;;;;;;5034974;28;20031;-66
2021/04/06 04:21:37;;;;;;;4.60;1.70;;;;;;;;;;5017480;28;20430;-66
2021/04/06 04:24:03;;;;;;;2.20;1.90;;;;;;;;;;5017277;28;20052;-66
2021/04/06 04:26:28;;;;;;;3.50;1.85;;;;;;;;;;5017411;28;20048;-66
2021/04/06 04:51:25;;;;;;;1.80;1.63;;;;;;;;;;3847875;23;20061;-66
2021/04/06 04:53:51;;;;;;;2.50;1.65;;;;;;;;;;5014765;28;20022;-66
2021/04/06 04:56:16;;;;;;;2.90;1.73;;;;;;;;;;4997120;28;20029;-65
2021/04/06 04:58:41;;;;;;;3.30;1.50;;;;;;;;;;4997157;28;20390;-66
2021/04/06 05:01:07;;;;;;;4.65;1.40;;;;;;;;;;4997036;28;20021;-66
2021/04/06 05:03:33;;;;;;;2.60;1.50;;;;;;;;;;5014391;28;20022;-66
2021/04/06 05:05:58;;;;;;;2.08;1.50;;;;;;;;;;5013988;28;20108;-66
2021/04/06 05:08:24;;;;;;;4.13;1.80;;;;;;;;;;5014556;28;20022;-66
2021/04/06 05:10:49;;;;;;;1.63;1.08;;;;;;;;;;4996757;28;20026;-66
2021/04/06 05:13:14;;;;;;;1.33;0.98;;;;;;;;;;5014449;28;20026;-66
2021/04/06 05:15:40;;;;;;;1.13;1.00;;;;;;;;;;5014422;28;20022;-66
2021/04/06 05:18:05;;;;;;;2.75;1.70;;;;;;;;;;4996758;28;20060;-65
2021/04/06 05:20:31;;;;;;;2.20;1.30;;;;;;;;;;4996841;28;20014;-66
2021/04/06 05:22:56;;;;;;;3.30;1.00;;;;;;;;;;4996621;28;20487;-66
2021/04/06 05:25:21;;;;;;;1.67;1.15;;;;;;;;;;4996030;28;20022;-66
2021/04/06 05:27:47;;;;;;;1.05;0.95;;;;;;;;;;5014192;28;20018;-66
2021/04/06 05:30:12;;;;;;;1.88;1.13;;;;;;;;;;4996815;28;20101;-66
2021/04/06 05:32:38;;;;;;;4.88;1.40;;;;;;;;;;5013905;28;20435;-66
2021/04/06 05:35:04;;;;;;;1.50;1.13;;;;;;;;;;4979313;28;20013;-66
2021/04/06 05:37:30;;;;;;;3.17;1.60;;;;;;;;;;5014445;28;20025;-66
2021/04/06 05:39:55;;;;;;;4.13;1.40;;;;;;;;;;4996865;28;20023;-66
2021/04/06 05:42:21;;;;;;;2.10;1.58;;;;;;;;;;5014022;28;20022;-66
2021/04/06 05:44:46;;;;;;;2.15;1.58;;;;;;;;;;4996196;28;20376;-66
2021/04/06 05:47:15;;;;;;;4.85;1.70;;;;;;;;;;5013767;28;20529;-66
2021/04/06 05:49:41;;;;;;;3.05;1.60;;;;;;;;;;5013690;28;20173;-66
2021/04/06 05:52:08;;;;;;;3.33;1.85;;;;;;;;;;5005234;28;20514;-66
2021/04/06 05:54:33;;;;;;;3.65;2.03;;;;;;;;;;5015593;28;20025;-66
2021/04/06 05:56:58;;;;;;;2.67;2.20;;;;;;;;;;5015844;28;20389;-66
2021/04/06 05:59:24;;;;;;;6.95;2.65;;;;;;;;;;4999240;28;20025;-66
2021/04/06 06:01:49;;;;;;;5.10;2.65;;;;;;;;;;5033378;28;20021;-66
2021/04/06 06:04:16;;;;;;;4.32;2.70;;;;;;;;;;5015323;28;20025;-66
2021/04/06 06:06:42;;;;;;;4.93;2.58;;;;;;;;;;5014465;28;20014;-66
2021/04/06 06:09:09;;;;;;;6.68;3.13;;;;;;;;;;5019488;28;20024;-66
2021/04/06 06:11:54;;;;;;;5.15;3.38;;;;;;;;;;5008878;28;20069;-66
2021/04/06 06:14:30;;;;;;;5.82;3.28;;;;;;;;;;5013780;28;20490;-66
2021/04/06 06:16:56;;;;;;;9.32;3.00;;;;;;;;;;5031751;28;20051;-66
2021/04/06 06:19:21;;;;;;;4.47;3.22;;;;;;;;;;5014600;28;20010;-66
2021/04/06 06:21:49;;;;;;;6.35;4.38;;;;;;;;;;5032307;28;20064;-66
2021/04/06 06:24:24;;;;;;;6.93;3.95;;;;;;;;;;5026112;28;20025;-66
2021/04/06 06:26:49;;;;;;;5.25;2.92;;;;;;;;;;5018561;28;20052;-66
2021/04/06 06:29:17;;;;;;;4.70;3.03;;;;;;;;;;5024142;28;20501;-67
2021/04/06 06:31:45;;;;;;;7.78;3.28;;;;;;;;;;4984744;28;20029;-67
2021/04/06 06:34:20;;;;;;;6.72;3.10;;;;;;;;;;5013590;28;20429;-67
2021/04/06 06:36:45;;;;;;;4.80;3.00;;;;;;;;;;5039668;28;20067;-68
2021/04/06 06:39:11;;;;;;;5.53;3.05;;;;;;;;;;5007821;28;20029;-66
2021/04/06 06:41:37;;;;;;;7.03;2.92;;;;;;;;;;5038613;28;20028;-68
2021/04/06 06:44:02;;;;;;;3.67;2.63;;;;;;;;;;5025132;28;20026;-67
2021/04/06 06:46:30;;;;;;;3.97;2.47;;;;;;;;;;5001261;28;20100;-67
2021/04/06 06:48:59;;;;;;;3.33;2.30;;;;;;;;;;5001705;28;20018;-68
2021/04/06 06:51:42;;;;;;;2.70;2.40;;;;;;;;;;5001138;28;20044;-67
2021/04/06 06:54:09;;;;;;;3.45;2.78;;;;;;;;;;5036906;28;20320;-67
2021/04/06 06:56:36;;;;;;;5.40;2.80;;;;;;;;;;5047286;28;20048;-68
2021/04/06 06:59:02;;;;;;;4.63;2.78;;;;;;;;;;5051062;28;20542;-67
2021/04/06 07:01:28;;;;;;;4.75;2.78;;;;;;;;;;5016581;28;20099;-68
2021/04/06 07:04:02;;;;;;;5.35;2.55;;;;;;;;;;5019992;28;20025;-68
2021/04/06 07:06:28;;;;;;;5.15;2.70;;;;;;;;;;5030237;28;20374;-67
2021/04/06 07:08:53;;;;;;;6.80;2.70;;;;;;;;;;5011876;28;20025;-68
2021/04/06 07:11:19;;;;;;;6.25;2.80;;;;;;;;;;5012485;28;20128;-68
2021/04/06 07:13:45;;;;;;;5.40;2.40;;;;;;;;;;5034958;28;20036;-67
2021/04/06 07:16:13;;;;;;;3.83;2.63;;;;;;;;;;5015707;28;20018;-69
2021/04/06 07:18:39;;;;;;;3.90;2.73;;;;;;;;;;5026557;28;20036;-64
2021/04/06 07:21:05;;;;;;;3.08;2.47;;;;;;;;;;5024294;28;20033;-65
2021/04/06 07:23:35;;;;;;;6.45;2.60;;;;;;;;;;5022921;28;20025;-64
2021/04/06 07:26:03;;;;;;;5.53;3.00;;;;;;;;;;5031171;28;20048;-63
2021/04/06 07:28:29;;;;;;;7.88;2.60;;;;;;;;;;4993109;28;20053;-63
2021/04/06 07:30:54;;;;;;;7.45;3.10;;;;;;;;;;5020773;28;20027;-64
2021/04/06 07:33:20;;;;;;;6.55;3.13;;;;;;;;;;5015944;28;20026;-64
2021/04/06 07:35:46;;;;;;;6.80;2.78;;;;;;;;;;5027220;28;20036;-63
2021/04/06 07:38:11;;;;;;;4.63;2.55;;;;;;;;;;5031034;28;20032;-64
2021/04/06 07:40:37;;;;;;;9.38;3.00;;;;;;;;;;5026033;28;20026;-64
2021/04/06 07:43:04;;;;;;;4.40;2.72;;;;;;;;;;4996969;28;20053;-65
2021/04/06 07:45:29;;;;;;;9.15;3.05;;;;;;;;;;5030517;28;20022;-65
2021/04/06 07:47:55;;;;;;;10.35;3.17;;;;;;;;;;5013529;28;20068;-65
2021/04/06 07:50:30;;;;;;;4.65;2.38;;;;;;;;;;5015138;28;20018;-66
2021/04/06 07:53:15;;;;;;;7.65;2.45;;;;;;;;;;5024784;28;20068;-66
2021/04/06 07:55:42;;;;;;;6.88;3.10;;;;;;;;;;5019595;28;20010;-66
2021/04/06 07:58:07;;;;;;;6.13;3.10;;;;;;;;;;5000778;28;20017;-66
2021/04/06 08:00:42;;;;;;;7.05;3.00;;;;;;;;;;5034367;28;20064;-66
2021/04/06 08:03:07;;;;;;;4.90;2.80;;;;;;;;;;5042738;28;20047;-66
2021/04/06 08:05:32;;;;;;;5.90;3.15;;;;;;;;;;5036596;28;20103;-66
2021/04/06 08:08:18;;;;;;;10.13;2.92;;;;;;;;;;4995906;28;20406;-65
2021/04/06 08:10:53;;;;;;;9.73;3.55;;;;;;;;;;5024633;28;20493;-66
2021/04/06 08:13:18;;;;;;;6.60;3.00;;;;;;;;;;5029324;28;20013;-65
2021/04/06 08:15:44;;;;;;;5.03;2.35;;;;;;;;;;5028217;28;20029;-65
2021/04/06 08:18:14;;;;;;;5.47;2.70;;;;;;;;;;5039029;28;20024;-65
2021/04/06 08:20:41;;;;;;;6.00;2.70;;;;;;;;;;5024182;28;20379;-65
2021/04/06 08:23:08;;;;;;;8.38;3.20;;;;;;;;;;5022643;28;20533;-66
2021/04/06 08:25:34;;;;;;;4.03;2.78;;;;;;;;;;5024589;28;20014;-66
2021/04/06 08:28:00;;;;;;;4.57;2.60;;;;;;;;;;5024550;28;20024;-65
2021/04/06 08:30:27;;;;;;;8.52;2.92;;;;;;;;;;4989655;28;20021;-65
2021/04/06 08:33:02;;;;;;;3.75;2.03;;;;;;;;;;5023765;28;20029;-64
2021/04/06 08:35:37;;;;;;;3.50;2.35;;;;;;;;;;5023403;28;20029;-65
2021/04/06 08:38:02;;;;;;;5.90;2.58;;;;;;;;;;5012282;28;20071;-65
2021/04/06 08:40:42;;;;;;;4.38;2.55;;;;;;;;;;5021782;28;20014;-65
2021/04/06 08:43:08;;;;;;;8.43;2.30;;;;;;;;;;4999278;28;20556;-66
2021/04/06 08:45:34;;;;;;;9.80;2.42;;;;;;;;;;5032485;28;20112;-66
2021/04/06 08:47:59;;;;;;;3.78;2.22;;;;;;;;;;5030227;28;20028;-66
2021/04/06 08:50:32;;;;;;;7.00;2.58;;;;;;;;;;5011672;28;20100;-66
2021/04/06 08:52:58;;;;;;;7.15;2.42;;;;;;;;;;5005901;28;20128;-66
2021/04/06 08:55:24;;;;;;;5.38;2.40;;;;;;;;;;4978459;28;20066;-66
2021/04/06 08:57:55;;;;;;;4.63;2.38;;;;;;;;;;5005273;28;20087;-68
2021/04/06 09:00:21;;;;;;;3.33;2.30;;;;;;;;;;4999795;28;20032;-66
2021/04/06 09:02:59;;;;;;;10.38;2.20;;;;;;;;;;4992311;28;20022;-67
2021/04/06 09:05:27;;;;;;;6.45;2.88;;;;;;;;;;4975508;28;20397;-67
2021/04/06 09:07:53;;;;;;;6.20;2.42;;;;;;;;;;4986174;28;20033;-66
2021/04/06 09:10:18;;;;;;;5.35;2.40;;;;;;;;;;4984826;28;20503;-67
2021/04/06 09:12:44;;;;;;;8.68;2.88;;;;;;;;;;5008197;28;20037;-62
2021/04/06 09:15:12;;;;;;;8.00;2.88;;;;;;;;;;4990597;28;20038;-62
2021/04/06 09:17:38;;;;;;;3.70;2.40;;;;;;;;;;4992032;28;20467;-62
2021/04/06 09:20:08;;;;;;;8.75;3.00;;;;;;;;;;5003815;28;20022;-63
2021/04/06 09:22:33;;;;;;;6.90;2.70;;;;;;;;;;4987373;28;20018;-63
2021/04/06 09:25:11;;;;;;;4.68;2.40;;;;;;;;;;4986116;28;20422;-63
2021/04/06 09:27:46;;;;;;;5.43;2.75;;;;;;;;;;5006405;28;20557;-64
2021/04/06 09:30:11;;;;;;;7.43;2.72;;;;;;;;;;4987991;28;20026;-64
2021/04/06 09:32:37;;;;;;;5.60;2.92;;;;;;;;;;5006532;28;20377;-69
2021/04/06 09:35:02;;;;;;;3.72;2.33;;;;;;;;;;5005707;28;20018;-69
2021/04/06 09:37:28;;;;;;;4.05;2.38;;;;;;;;;;4993074;28;20018;-69
2021/04/06 10:40:40;;;;;;;9.95;2.20;;;;;;;;;;5081417;28;20398;-68
2021/04/06 10:43:07;;;;;;;3.22;1.63;;;;;;;;;;5067215;28;20033;-63
2021/04/06 10:45:34;;;;;;;4.07;1.80;;;;;;;;;;5070569;28;20067;-64
2021/04/06 10:48:04;;;;;;;1.40;1.30;;;;;;;;;;5071675;28;20089;-65
2021/04/06 10:50:30;;;;;;;4.13;1.45;;;;;;;;;;5049695;28;20031;-66
2021/04/06 10:52:56;;;;;;;2.83;1.45;;;;;;;;;;5067435;28;20701;-68
2021/04/06 10:55:31;;;;;;;1.98;1.40;;;;;;;;;;5071382;28;20039;-67
2021/04/06 10:57:56;;;;;;;5.25;1.75;;;;;;;;;;5069308;28;20024;-66
2021/04/06 11:00:23;;;;;;;5.00;1.75;;;;;;;;;;5073344;28;20477;-66
2021/04/06 11:02:49;;;;;;;3.10;1.63;;;;;;;;;;5068676;28;20029;-68
2021/04/06 11:05:24;;;;;;;2.92;1.70;;;;;;;;;;5058561;28;20141;-70
2021/04/06 11:07:49;;;;;;;4.43;1.48;;;;;;;;;;5066468;28;20012;-69
2021/04/06 11:10:15;;;;;;;3.85;2.47;;;;;;;;;;5069813;28;20035;-64
2021/04/06 11:12:41;;;;;;;3.72;1.42;;;;;;;;;;5067807;28;20393;-65
2021/04/06 11:15:06;;;;;;;3.95;1.65;;;;;;;;;;5073521;28;20023;-67
2021/04/06 11:17:32;;;;;;;4.85;1.60;;;;;;;;;;5072976;28;20445;-66
2021/04/06 11:19:58;;;;;;;2.50;1.70;;;;;;;;;;5068618;28;20474;-67
2021/04/06 11:22:23;;;;;;;3.15;2.00;;;;;;;;;;5066682;28;20009;-66
2021/04/06 11:24:50;;;;;;;3.38;1.90;;;;;;;;;;5070638;28;20032;-66
2021/04/06 11:27:18;;;;;;;6.35;2.20;;;;;;;;;;5066045;28;20102;-65
2021/04/06 11:29:44;;;;;;;2.85;1.83;;;;;;;;;;5058010;28;20460;-66
2021/04/06 11:32:10;;;;;;;5.63;1.98;;;;;;;;;;5078383;28;20024;-65
2021/04/06 11:34:36;;;;;;;3.13;1.73;;;;;;;;;;5059500;28;20492;-66
2021/04/06 11:37:01;;;;;;;5.05;1.98;;;;;;;;;;5064089;28;20099;-66
2021/04/06 11:39:28;;;;;;;7.32;1.83;;;;;;;;;;5051962;28;20045;-66
2021/04/06 11:41:54;;;;;;;5.72;1.80;;;;;;;;;;5070781;28;20032;-66
2021/04/06 11:44:20;;;;;;;6.72;2.20;;;;;;;;;;5056180;28;20051;-64
2021/04/06 11:46:46;;;;;;;3.65;1.70;;;;;;;;;;5065625;28;20059;-63
2021/04/06 11:49:12;;;;;;;3.83;1.77;;;;;;;;;;5070651;28;20036;-66
2021/04/06 11:51:38;;;;;;;5.50;1.58;;;;;;;;;;5055027;28;20474;-65
2021/04/06 11:54:05;;;;;;;6.45;2.20;;;;;;;;;;5042601;28;20014;-66
2021/04/06 11:56:30;;;;;;;3.45;1.67;;;;;;;;;;5032764;28;20116;-66
2021/04/06 11:58:55;;;;;;;3.47;2.15;;;;;;;;;;5036435;28;20021;-66
2021/04/06 12:01:21;;;;;;;6.15;2.03;;;;;;;;;;5036747;28;20021;-66
2021/04/06 12:03:46;;;;;;;3.53;1.77;;;;;;;;;;5038252;28;20057;-65
2021/04/06 12:06:11;;;;;;;8.80;1.80;;;;;;;;;;5037042;28;20021;-64
2021/04/06 12:08:37;;;;;;;4.70;2.00;;;;;;;;;;5039877;28;20017;-65
2021/04/06 12:11:02;;;;;;;3.28;1.88;;;;;;;;;;5039155;28;20012;-65
2021/04/06 12:13:28;;;;;;;4.00;2.30;;;;;;;;;;5065972;28;20021;-65
2021/04/06 12:15:54;;;;;;;3.78;2.05;;;;;;;;;;5058534;28;20503;-65
2021/04/06 12:18:19;;;;;;;5.30;2.28;;;;;;;;;;5053215;28;20024;-63
2021/04/06 12:20:45;;;;;;;7.78;2.38;;;;;;;;;;5052736;28;20029;-63
2021/04/06 12:23:10;;;;;;;3.88;2.10;;;;;;;;;;5057546;28;20024;-65
2021/04/06 12:25:35;;;;;;;5.38;2.30;;;;;;;;;;5060880;28;20073;-66
2021/04/06 12:28:01;;;;;;;6.50;2.65;;;;;;;;;;5060562;28;20017;-64
2021/04/06 12:30:26;;;;;;;6.20;2.30;;;;;;;;;;5050306;28;20032;-63
2021/04/06 12:32:52;;;;;;;7.30;2.50;;;;;;;;;;5054992;28;20032;-63
2021/04/06 12:35:17;;;;;;;3.30;2.00;;;;;;;;;;5066807;28;20138;-63
2021/04/06 12:37:43;;;;;;;4.95;2.00;;;;;;;;;;5060689;28;20409;-65
2021/04/06 12:40:09;;;;;;;5.60;2.63;;;;;;;;;;5060448;28;20052;-69
2021/04/06 12:42:36;;;;;;;4.45;2.63;;;;;;;;;;5068718;28;20373;-69
2021/04/06 12:45:04;;;;;;;6.03;2.30;;;;;;;;;;5056618;28;20017;-68
2021/04/06 12:47:29;;;;;;;6.80;2.47;;;;;;;;;;5048354;28;20021;-68
2021/04/06 12:49:54;;;;;;;7.15;2.17;;;;;;;;;;5053790;28;20090;-69
2021/04/06 12:52:20;;;;;;;2.88;2.03;;;;;;;;;;5058543;28;20013;-67
2021/04/06 12:54:45;;;;;;;3.97;2.42;;;;;;;;;;5051862;28;20025;-64
2021/04/06 12:57:11;;;;;;;5.22;2.20;;;;;;;;;;5050721;28;20020;-63
2021/04/06 12:59:36;;;;;;;5.00;2.10;;;;;;;;;;5064511;28;20028;-66
2021/04/06 13:02:02;;;;;;;4.68;2.25;;;;;;;;;;5059703;28;20012;-65
2021/04/06 13:04:27;;;;;;;4.00;2.25;;;;;;;;;;5066780;28;20092;-66
2021/04/06 13:06:55;;;;;;;4.28;2.08;;;;;;;;;;5037068;28;20381;-67
2021/04/06 13:09:20;;;;;;;8.73;2.53;;;;;;;;;;5065760;28;20025;-67
2021/04/06 13:11:46;;;;;;;8.10;2.25;;;;;;;;;;5061077;28;20080;-66
2021/04/06 13:14:11;;;;;;;6.95;2.50;;;;;;;;;;5046945;28;20090;-67
2021/04/06 13:16:36;;;;;;;7.35;2.30;;;;;;;;;;5052536;28;20017;-67
2021/04/06 13:19:02;;;;;;;6.32;1.85;;;;;;;;;;5032888;28;20041;-64
2021/04/06 13:21:28;;;;;;;3.33;1.63;;;;;;;;;;5052774;28;20122;-65
2021/04/06 13:23:53;;;;;;;6.38;1.90;;;;;;;;;;5052275;28;20017;-64
2021/04/06 13:26:19;;;;;;;4.85;2.10;;;;;;;;;;5052438;28;20036;-64
2021/04/06 13:28:45;;;;;;;2.85;1.80;;;;;;;;;;5058054;28;20194;-63
2021/04/06 13:31:10;;;;;;;4.70;2.33;;;;;;;;;;5053694;28;20095;-63
2021/04/06 13:33:35;;;;;;;3.85;2.08;;;;;;;;;;5055595;28;20020;-64
2021/04/06 13:36:01;;;;;;;5.00;2.08;;;;;;;;;;5053448;28;20070;-70
2021/04/06 13:38:26;;;;;;;2.28;1.90;;;;;;;;;;5051594;28;20103;-62
2021/04/06 13:40:52;;;;;;;3.90;2.20;;;;;;;;;;5065275;28;20025;-63
2021/04/06 13:43:17;;;;;;;8.77;2.28;;;;;;;;;;5056961;28;20358;-64
2021/04/06 13:45:42;;;;;;;5.97;2.63;;;;;;;;;;5064612;28;20017;-64
2021/04/06 13:48:19;;;;;;;3.63;2.03;;;;;;;;;;5044575;28;20017;-65
2021/04/06 13:50:55;;;;;;;4.43;2.45;;;;;;;;;;5059753;28;20028;-65
2021/04/06 13:53:33;;;;;;;6.18;2.10;;;;;;;;;;5043965;28;20025;-64
2021/04/06 13:56:05;;;;;;;3.10;1.95;;;;;;;;;;5069555;28;20024;-64
2021/04/06 13:58:31;;;;;;;6.65;2.00;;;;;;;;;;5051386;28;20381;-65
2021/04/06 14:00:56;;;;;;;5.75;1.95;;;;;;;;;;5066922;28;20031;-64
2021/04/06 14:03:21;;;;;;;6.68;2.80;;;;;;;;;;5055634;28;20017;-65
2021/04/06 14:05:49;;;;;;;5.88;2.92;;;;;;;;;;5061948;28;20059;-64
2021/04/06 14:08:14;;;;;;;13.93;4.15;;;;;;;;;;5064563;28;20028;-64
2021/04/06 14:10:40;;;;;;;10.98;4.57;;;;;;;;;;5053642;28;20020;-63
2021/04/06 14:13:06;;;;;;;3.88;2.00;;;;;;;;;;5067784;28;20017;-64
2021/04/06 14:15:33;;;;;;;3.53;2.22;;;;;;;;;;5057211;28;20428;-64
2021/04/06 14:17:58;;;;;;;6.57;2.65;;;;;;;;;;5059380;28;20021;-64
2021/04/06 14:20:25;;;;;;;4.47;2.50;;;;;;;;;;5065994;28;20474;-64
2021/04/06 14:22:50;;;;;;;3.55;1.98;;;;;;;;;;5054792;28;20044;-64
2021/04/06 14:25:17;;;;;;;5.82;2.40;;;;;;;;;;5066784;28;20053;-64
